sensor_id;sensor_type;location;lat;lon;timestamp;pressure;altitude;pressure_sealevel;temperature;humidity
38939;BME280;24211;49.980;19.776;2023-02-03T00:00:00;99930.00;;;1.76;100.00
38939;BME280;24211;49.980;19.776;2023-02-03T00:06:52;99924.44;;;1.79;100.00
38939;BME280;24211;49.980;19.776;2023-02-03T00:09:20;99929.19;;;1.75;100.00
38939;BME280;24211;49.980;19.776;2023-02-03T00:11:48;99927.75;;;1.81;100.00
38939;BME280;24211;49.980;19.776;2023-02-03T00:14:15;99932.00;;;1.82;100.00
38939;BME280;24211;49.980;19.776;2023-02-03T00:16:43;99932.47;;;1.77;100.00
38939;BME280;24211;49.980;19.776;2023-02-03T00:19:10;99939.72;;;1.75;100.00
38939;BME280;24211;49.980;19.776;2023-02-03T00:21:38;99944.84;;;1.77;100.00
38939;BME280;24211;49.980;19.776;2023-02-03T00:24:05;99941.06;;;1.79;100.00
38939;BME280;24211;49.980;19.776;2023-02-03T00:26:33;99949.13;;;1.78;100.00
38939;BME280;24211;49.980;19.776;2023-02-03T00:29:02;99951.28;;;1.82;100.00
38939;BME280;24211;49.980;19.776;2023-02-03T00:31:30;99956.88;;;1.79;100.00
38939;BME280;24211;49.980;19.776;2023-02-03T00:33:57;99964.78;;;1.79;100.00
38939;BME280;24211;49.980;19.776;2023-02-03T00:36:25;99967.41;;;1.79;100.00
38939;BME280;24211;49.980;19.776;2023-02-03T00:38:53;99975.78;;;1.75;100.00
38939;BME280;24211;49.980;19.776;2023-02-03T00:41:21;99968.25;;;1.80;100.00
38939;BME280;24211;49.980;19.776;2023-02-03T00:43:50;99965.97;;;1.85;100.00
38939;BME280;24211;49.980;19.776;2023-02-03T00:46:18;99972.25;;;1.84;100.00
38939;BME280;24211;49.980;19.776;2023-02-03T00:48:46;99969.91;;;1.81;100.00
38939;BME280;24211;49.980;19.776;2023-02-03T00:51:13;99969.53;;;1.76;100.00
38939;BME280;24211;49.980;19.776;2023-02-03T00:53:40;99967.81;;;1.67;100.00
38939;BME280;24211;49.980;19.776;2023-02-03T00:56:08;99975.34;;;1.62;100.00
38939;BME280;24211;49.980;19.776;2023-02-03T00:58:39;99982.03;;;1.56;100.00
38939;BME280;24211;49.980;19.776;2023-02-03T01:01:07;99973.19;;;1.57;100.00
38939;BME280;24211;49.980;19.776;2023-02-03T01:03:36;99975.34;;;1.62;100.00
38939;BME280;24211;49.980;19.776;2023-02-03T01:06:17;99977.00;;;1.63;100.00
38939;BME280;24211;49.980;19.776;2023-02-03T01:08:46;99985.88;;;1.62;100.00
38939;BME280;24211;49.980;19.776;2023-02-03T01:11:22;99985.88;;;1.62;100.00
38939;BME280;24211;49.980;19.776;2023-02-03T01:13:52;99978.94;;;1.61;100.00
38939;BME280;24211;49.980;19.776;2023-02-03T01:16:22;99979.63;;;1.63;100.00
38939;BME280;24211;49.980;19.776;2023-02-03T01:18:50;99980.63;;;1.62;100.00
38939;BME280;24211;49.980;19.776;2023-02-03T01:21:24;99979.91;;;1.60;100.00
38939;BME280;24211;49.980;19.776;2023-02-03T01:23:52;99978.28;;;1.59;100.00
38939;BME280;24211;49.980;19.776;2023-02-03T01:26:22;99974.31;;;1.55;100.00
38939;BME280;24211;49.980;19.776;2023-02-03T01:31:26;99980.16;;;1.49;100.00
38939;BME280;24211;49.980;19.776;2023-02-03T01:33:54;99976.56;;;1.50;100.00
38939;BME280;24211;49.980;19.776;2023-02-03T01:36:25;99989.34;;;1.45;100.00
38939;BME280;24211;49.980;19.776;2023-02-03T01:38:54;99983.25;;;1.44;100.00
38939;BME280;24211;49.980;19.776;2023-02-03T01:41:29;99986.41;;;1.48;100.00
38939;BME280;24211;49.980;19.776;2023-02-03T01:50:13;99973.97;;;1.58;100.00
38939;BME280;24211;49.980;19.776;2023-02-03T01:52:48;99976.63;;;1.58;100.00
38939;BME280;24211;49.980;19.776;2023-02-03T01:55:24;99973.69;;;1.61;100.00
38939;BME280;24211;49.980;19.776;2023-02-03T01:58:02;99966.63;;;1.61;100.00
38939;BME280;24211;49.980;19.776;2023-02-03T02:00:31;99968.13;;;1.64;100.00
38939;BME280;24211;49.980;19.776;2023-02-03T02:03:01;99972.72;;;1.62;100.00
38939;BME280;24211;49.980;19.776;2023-02-03T02:05:40;99962.09;;;1.54;100.00
38939;BME280;24211;49.980;19.776;2023-02-03T02:08:12;99958.50;;;1.55;100.00
38939;BME280;24211;49.980;19.776;2023-02-03T02:10:41;99947.63;;;1.58;100.00
38939;BME280;24211;49.980;19.776;2023-02-03T02:13:09;99950.66;;;1.63;100.00
38939;BME280;24211;49.980;19.776;2023-02-03T02:18:50;99936.81;;;1.61;100.00
38939;BME280;24211;49.980;19.776;2023-02-03T02:24:47;99944.53;;;1.62;100.00
38939;BME280;24211;49.980;19.776;2023-02-03T02:33:40;99952.91;;;1.58;100.00
38939;BME280;24211;49.980;19.776;2023-02-03T02:39:00;99944.03;;;1.59;100.00
38939;BME280;24211;49.980;19.776;2023-02-03T02:42:17;99958.53;;;1.63;100.00
38939;BME280;24211;49.980;19.776;2023-02-03T02:44:54;99956.91;;;1.62;100.00
38939;BME280;24211;49.980;19.776;2023-02-03T02:47:23;99962.31;;;1.60;100.00
38939;BME280;24211;49.980;19.776;2023-02-03T02:52:45;99964.28;;;1.58;100.00
38939;BME280;24211;49.980;19.776;2023-02-03T02:55:20;99959.16;;;1.57;100.00
38939;BME280;24211;49.980;19.776;2023-02-03T02:58:00;99960.44;;;1.53;100.00
38939;BME280;24211;49.980;19.776;2023-02-03T03:00:34;99954.38;;;1.52;100.00
38939;BME280;24211;49.980;19.776;2023-02-03T03:03:21;99950.91;;;1.52;100.00
38939;BME280;24211;49.980;19.776;2023-02-03T03:05:59;99926.34;;;1.51;100.00
38939;BME280;24211;49.980;19.776;2023-02-03T03:11:11;99930.03;;;1.58;100.00
38939;BME280;24211;49.980;19.776;2023-02-03T03:13:47;99915.72;;;1.61;100.00
38939;BME280;24211;49.980;19.776;2023-02-03T03:16:22;99910.16;;;1.64;100.00
38939;BME280;24211;49.980;19.776;2023-02-03T03:19:03;99895.69;;;1.68;100.00
38939;BME280;24211;49.980;19.776;2023-02-03T03:21:50;99897.34;;;1.69;100.00
38939;BME280;24211;49.980;19.776;2023-02-03T03:24:27;99902.31;;;1.72;100.00
38939;BME280;24211;49.980;19.776;2023-02-03T03:27:07;99915.34;;;1.73;100.00
38939;BME280;24211;49.980;19.776;2023-02-03T03:29:51;99908.94;;;1.76;100.00
38939;BME280;24211;49.980;19.776;2023-02-03T03:32:20;99924.44;;;1.79;100.00
38939;BME280;24211;49.980;19.776;2023-02-03T03:34:50;99932.00;;;1.82;100.00
38939;BME280;24211;49.980;19.776;2023-02-03T03:40:11;99949.13;;;1.78;100.00
38939;BME280;24211;49.980;19.776;2023-02-03T03:42:46;99947.50;;;1.77;100.00
38939;BME280;24211;49.980;19.776;2023-02-03T03:45:39;99945.28;;;1.72;100.00
38939;BME280;24211;49.980;19.776;2023-02-03T03:48:20;99940.84;;;1.73;100.00
38939;BME280;24211;49.980;19.776;2023-02-03T03:51:04;99929.72;;;1.79;100.00
38939;BME280;24211;49.980;19.776;2023-02-03T03:53:37;99929.72;;;1.79;100.00
38939;BME280;24211;49.980;19.776;2023-02-03T03:56:12;99927.22;;;1.77;100.00
38939;BME280;24211;49.980;19.776;2023-02-03T03:58:45;99924.28;;;1.80;100.00
38939;BME280;24211;49.980;19.776;2023-02-03T04:01:17;99906.59;;;1.73;100.00
38939;BME280;24211;49.980;19.776;2023-02-03T04:03:51;99907.91;;;1.69;100.00
38939;BME280;24211;49.980;19.776;2023-02-03T04:06:20;99905.94;;;1.71;100.00
38939;BME280;24211;49.980;19.776;2023-02-03T04:08:47;99904.59;;;1.67;100.00
38939;BME280;24211;49.980;19.776;2023-02-03T04:11:14;99897.66;;;1.66;100.00
38939;BME280;24211;49.980;19.776;2023-02-03T04:14:03;99894.84;;;1.67;100.00
38939;BME280;24211;49.980;19.776;2023-02-03T04:16:30;99890.41;;;1.68;100.00
38939;BME280;24211;49.980;19.776;2023-02-03T04:18:57;99885.78;;;1.62;100.00
38939;BME280;24211;49.980;19.776;2023-02-03T04:21:25;99878.94;;;1.51;100.00
38939;BME280;24211;49.980;19.776;2023-02-03T04:23:52;99878.56;;;1.46;100.00
38939;BME280;24211;49.980;19.776;2023-02-03T04:26:23;99875.78;;;1.48;100.00
38939;BME280;24211;49.980;19.776;2023-02-03T04:28:50;99869.84;;;1.46;100.00
38939;BME280;24211;49.980;19.776;2023-02-03T04:31:17;99877.06;;;1.44;100.00
38939;BME280;24211;49.980;19.776;2023-02-03T04:33:45;99885.94;;;1.43;100.00
38939;BME280;24211;49.980;19.776;2023-02-03T04:36:12;99891.53;;;1.40;100.00
38939;BME280;24211;49.980;19.776;2023-02-03T04:38:41;99883.94;;;1.37;100.00
38939;BME280;24211;49.980;19.776;2023-02-03T04:41:08;99878.66;;;1.37;100.00
38939;BME280;24211;49.980;19.776;2023-02-03T04:43:36;99877.69;;;1.38;100.00
38939;BME280;24211;49.980;19.776;2023-02-03T04:46:04;99876.03;;;1.37;100.00
38939;BME280;24211;49.980;19.776;2023-02-03T04:48:31;99868.13;;;1.37;100.00
38939;BME280;24211;49.980;19.776;2023-02-03T04:51:04;99864.66;;;1.36;100.00
38939;BME280;24211;49.980;19.776;2023-02-03T04:53:32;99870.78;;;1.37;100.00
38939;BME280;24211;49.980;19.776;2023-02-03T04:56:01;99867.97;;;1.38;100.00
38939;BME280;24211;49.980;19.776;2023-02-03T04:58:28;99863.25;;;1.42;100.00
38939;BME280;24211;49.980;19.776;2023-02-03T05:00:56;99860.59;;;1.42;100.00
38939;BME280;24211;49.980;19.776;2023-02-03T05:03:23;99863.53;;;1.39;100.00
38939;BME280;24211;49.980;19.776;2023-02-03T05:05:55;99861.56;;;1.41;100.00
38939;BME280;24211;49.980;19.776;2023-02-03T05:08:23;99856.31;;;1.41;100.00
38939;BME280;24211;49.980;19.776;2023-02-03T05:10:51;99867.16;;;1.38;100.00
38939;BME280;24211;49.980;19.776;2023-02-03T05:13:18;99854.97;;;1.37;100.00
38939;BME280;24211;49.980;19.776;2023-02-03T05:15:46;99857.44;;;1.38;100.00
38939;BME280;24211;49.980;19.776;2023-02-03T05:18:13;99867.16;;;1.38;100.00
38939;BME280;24211;49.980;19.776;2023-02-03T05:20:40;99851.38;;;1.38;100.00
38939;BME280;24211;49.980;19.776;2023-02-03T05:23:07;99856.97;;;1.43;100.00
38939;BME280;24211;49.980;19.776;2023-02-03T05:25:35;99853.00;;;1.39;100.00
38939;BME280;24211;49.980;19.776;2023-02-03T05:28:02;99846.09;;;1.38;100.00
38939;BME280;24211;49.980;19.776;2023-02-03T05:30:30;99840.50;;;1.41;100.00
38939;BME280;24211;49.980;19.776;2023-02-03T05:32:57;99840.84;;;1.38;100.00
38939;BME280;24211;49.980;19.776;2023-02-03T05:35:25;99840.84;;;1.38;100.00
38939;BME280;24211;49.980;19.776;2023-02-03T05:37:52;99826.97;;;1.36;100.00
38939;BME280;24211;49.980;19.776;2023-02-03T05:40:19;99820.56;;;1.38;100.00
38939;BME280;24211;49.980;19.776;2023-02-03T05:43:18;99813.88;;;1.44;100.00
38939;BME280;24211;49.980;19.776;2023-02-03T05:45:46;99811.91;;;1.46;100.00
38939;BME280;24211;49.980;19.776;2023-02-03T05:48:13;99817.16;;;1.46;100.00
38939;BME280;24211;49.980;19.776;2023-02-03T05:50:41;99813.56;;;1.47;100.00
38939;BME280;24211;49.980;19.776;2023-02-03T05:53:10;99815.19;;;1.48;100.00
38939;BME280;24211;49.980;19.776;2023-02-03T05:55:37;99824.09;;;1.47;100.00
38939;BME280;24211;49.980;19.776;2023-02-03T05:58:04;99812.22;;;1.43;100.00
38939;BME280;24211;49.980;19.776;2023-02-03T06:00:32;99806.13;;;1.42;100.00
38939;BME280;24211;49.980;19.776;2023-02-03T06:03:01;99803.03;;;1.47;100.00
38939;BME280;24211;49.980;19.776;2023-02-03T06:05:33;99808.31;;;1.47;100.00
38939;BME280;24211;49.980;19.776;2023-02-03T06:08:02;99802.72;;;1.50;100.00
38939;BME280;24211;49.980;19.776;2023-02-03T06:10:29;99791.88;;;1.53;100.00
38939;BME280;24211;49.980;19.776;2023-02-03T06:12:56;99782.69;;;1.57;100.00
38939;BME280;24211;49.980;19.776;2023-02-03T06:15:24;99782.69;;;1.57;100.00
38939;BME280;24211;49.980;19.776;2023-02-03T06:17:51;99776.06;;;1.53;100.00
38939;BME280;24211;49.980;19.776;2023-02-03T06:20:19;99768.84;;;1.55;100.00
38939;BME280;24211;49.980;19.776;2023-02-03T06:22:46;99760.78;;;1.56;100.00
38939;BME280;24211;49.980;19.776;2023-02-03T06:25:15;99763.59;;;1.55;100.00
38939;BME280;24211;49.980;19.776;2023-02-03T06:27:42;99759.94;;;1.56;100.00
38939;BME280;24211;49.980;19.776;2023-02-03T06:30:10;99765.22;;;1.56;100.00
38939;BME280;24211;49.980;19.776;2023-02-03T06:32:38;99747.78;;;1.55;100.00
38939;BME280;24211;49.980;19.776;2023-02-03T06:35:05;99745.94;;;1.55;100.00
38939;BME280;24211;49.980;19.776;2023-02-03T06:37:33;99747.78;;;1.55;100.00
38939;BME280;24211;49.980;19.776;2023-02-03T06:40:03;99744.97;;;1.56;100.00
38939;BME280;24211;49.980;19.776;2023-02-03T06:42:30;99742.03;;;1.59;100.00
38939;BME280;24211;49.980;19.776;2023-02-03T06:44:58;99739.25;;;1.61;100.00
38939;BME280;24211;49.980;19.776;2023-02-03T06:47:25;99733.00;;;1.62;100.00
38939;BME280;24211;49.980;19.776;2023-02-03T06:49:52;99727.72;;;1.62;100.00
38939;BME280;24211;49.980;19.776;2023-02-03T06:52:20;99728.53;;;1.62;100.00
38939;BME280;24211;49.980;19.776;2023-02-03T06:54:47;99721.47;;;1.63;100.00
38939;BME280;24211;49.980;19.776;2023-02-03T06:57:15;99723.78;;;1.66;100.00
38939;BME280;24211;49.980;19.776;2023-02-03T06:59:55;99721.81;;;1.68;100.00
38939;BME280;24211;49.980;19.776;2023-02-03T07:02:22;99723.47;;;1.69;100.00
38939;BME280;24211;49.980;19.776;2023-02-03T07:04:50;99729.56;;;1.69;100.00
38939;BME280;24211;49.980;19.776;2023-02-03T07:07:17;99730.38;;;1.70;100.00
38939;BME280;24211;49.980;19.776;2023-02-03T07:09:44;99721.81;;;1.68;100.00
38939;BME280;24211;49.980;19.776;2023-02-03T07:12:12;99715.56;;;1.69;100.00
38939;BME280;24211;49.980;19.776;2023-02-03T07:14:39;99707.97;;;1.66;100.00
38939;BME280;24211;49.980;19.776;2023-02-03T07:17:06;99702.72;;;1.66;100.00
38939;BME280;24211;49.980;19.776;2023-02-03T07:19:34;99712.09;;;1.68;100.00
38939;BME280;24211;49.980;19.776;2023-02-03T07:22:03;99704.38;;;1.67;100.00
38939;BME280;24211;49.980;19.776;2023-02-03T07:24:31;99696.81;;;1.72;100.00
38939;BME280;24211;49.980;19.776;2023-02-03T07:26:58;99692.69;;;1.69;100.00
38939;BME280;24211;49.980;19.776;2023-02-03T07:29:25;99695.47;;;1.68;100.00
38939;BME280;24211;49.980;19.776;2023-02-03T07:31:52;99682.66;;;1.73;100.00
38939;BME280;24211;49.980;19.776;2023-02-03T07:34:20;99693.19;;;1.73;100.00
38939;BME280;24211;49.980;19.776;2023-02-03T07:36:47;99685.94;;;1.75;100.00
38939;BME280;24211;49.980;19.776;2023-02-03T07:39:14;99679.03;;;1.74;100.00
38939;BME280;24211;49.980;19.776;2023-02-03T07:41:42;99672.09;;;1.73;100.00
38939;BME280;24211;49.980;19.776;2023-02-03T07:44:09;99666.84;;;1.73;100.00
38939;BME280;24211;49.980;19.776;2023-02-03T07:46:37;99666.84;;;1.73;100.00
38939;BME280;24211;49.980;19.776;2023-02-03T07:49:11;99661.25;;;1.76;100.00
38939;BME280;24211;49.980;19.776;2023-02-03T07:51:39;99659.28;;;1.78;100.00
38939;BME280;24211;49.980;19.776;2023-02-03T07:54:06;99647.25;;;1.75;100.00
38939;BME280;24211;49.980;19.776;2023-02-03T07:56:34;99641.84;;;1.77;100.00
38939;BME280;24211;49.980;19.776;2023-02-03T07:59:02;99637.38;;;1.77;100.00
38939;BME280;24211;49.980;19.776;2023-02-03T08:01:30;99633.94;;;1.77;100.00
38939;BME280;24211;49.980;19.776;2023-02-03T08:03:58;99620.75;;;1.77;100.00
38939;BME280;24211;49.980;19.776;2023-02-03T08:06:28;99624.38;;;1.76;100.00
38939;BME280;24211;49.980;19.776;2023-02-03T08:08:56;99619.09;;;1.76;100.00
38939;BME280;24211;49.980;19.776;2023-02-03T08:11:23;99618.78;;;1.79;100.00
38939;BME280;24211;49.980;19.776;2023-02-03T08:13:51;99615.16;;;1.80;100.00
38939;BME280;24211;49.980;19.776;2023-02-03T08:16:18;99615.00;;;1.81;100.00
38939;BME280;24211;49.980;19.776;2023-02-03T08:18:46;99611.53;;;1.81;100.00
38939;BME280;24211;49.980;19.776;2023-02-03T08:21:13;99604.94;;;1.77;100.00
38939;BME280;24211;49.980;19.776;2023-02-03T08:23:40;99592.91;;;1.82;100.00
38939;BME280;24211;49.980;19.776;2023-02-03T08:26:08;99593.75;;;1.83;100.00
38939;BME280;24211;49.980;19.776;2023-02-03T08:28:35;99587.50;;;1.84;100.00
38939;BME280;24211;49.980;19.776;2023-02-03T08:31:11;99576.28;;;1.82;100.00
38939;BME280;24211;49.980;19.776;2023-02-03T08:33:39;99577.94;;;1.83;100.00
38939;BME280;24211;49.980;19.776;2023-02-03T08:36:06;99574.66;;;1.81;100.00
38939;BME280;24211;49.980;19.776;2023-02-03T08:38:34;99567.41;;;1.83;100.00
38939;BME280;24211;49.980;19.776;2023-02-03T08:41:13;99567.41;;;1.83;100.00
38939;BME280;24211;49.980;19.776;2023-02-03T08:43:41;99566.44;;;1.84;100.00
38939;BME280;24211;49.980;19.776;2023-02-03T08:46:10;99551.91;;;1.80;100.00
38939;BME280;24211;49.980;19.776;2023-02-03T08:48:38;99553.88;;;1.78;100.00
38939;BME280;24211;49.980;19.776;2023-02-03T08:51:15;99549.44;;;1.78;100.00
38939;BME280;24211;49.980;19.776;2023-02-03T08:53:43;99541.38;;;1.80;100.00
38939;BME280;24211;49.980;19.776;2023-02-03T08:56:12;99545.50;;;1.82;100.00
38939;BME280;24211;49.980;19.776;2023-02-03T08:58:39;99534.81;;;1.84;100.00
38939;BME280;24211;49.980;19.776;2023-02-03T09:01:09;99527.22;;;1.81;100.00
38939;BME280;24211;49.980;19.776;2023-02-03T09:03:38;99525.56;;;1.80;100.00
38939;BME280;24211;49.980;19.776;2023-02-03T09:06:07;99516.69;;;1.81;100.00
38939;BME280;24211;49.980;19.776;2023-02-03T09:08:38;99523.59;;;1.82;100.00
38939;BME280;24211;49.980;19.776;2023-02-03T09:11:14;99527.03;;;1.82;100.00
38939;BME280;24211;49.980;19.776;2023-02-03T09:13:43;99524.41;;;1.82;100.00
38939;BME280;24211;49.980;19.776;2023-02-03T09:16:14;99526.91;;;1.84;100.00
38939;BME280;24211;49.980;19.776;2023-02-03T09:18:46;99514.19;;;1.79;100.00
38939;BME280;24211;49.980;19.776;2023-02-03T09:21:15;99513.72;;;1.76;100.00
38939;BME280;24211;49.980;19.776;2023-02-03T09:24:02;99512.06;;;1.75;100.00
38939;BME280;24211;49.980;19.776;2023-02-03T09:26:31;99510.91;;;1.77;100.00
38939;BME280;24211;49.980;19.776;2023-02-03T09:28:59;99516.34;;;1.76;100.00
38939;BME280;24211;49.980;19.776;2023-02-03T09:31:32;99500.22;;;1.79;100.00
38939;BME280;24211;49.980;19.776;2023-02-03T09:34:00;99504.00;;;1.76;100.00
38939;BME280;24211;49.980;19.776;2023-02-03T09:36:29;99505.16;;;1.74;100.00
38939;BME280;24211;49.980;19.776;2023-02-03T09:38:57;99492.31;;;1.71;100.00
38939;BME280;24211;49.980;19.776;2023-02-03T09:44:29;99478.81;;;1.74;100.00
38939;BME280;24211;49.980;19.776;2023-02-03T09:47:11;99482.09;;;1.76;100.00
38939;BME280;24211;49.980;19.776;2023-02-03T09:49:44;99469.56;;;1.78;100.00
38939;BME280;24211;49.980;19.776;2023-02-03T09:52:17;99460.69;;;1.79;100.00
38939;BME280;24211;49.980;19.776;2023-02-03T09:57:50;99447.53;;;1.71;100.00
38939;BME280;24211;49.980;19.776;2023-02-03T10:00:29;99442.44;;;1.69;100.00
38939;BME280;24211;49.980;19.776;2023-02-03T10:03:16;99436.34;;;1.77;100.00
38939;BME280;24211;49.980;19.776;2023-02-03T10:09:25;99427.75;;;1.83;100.00
38939;BME280;24211;49.980;19.776;2023-02-03T10:12:22;99423.13;;;1.85;100.00
38939;BME280;24211;49.980;19.776;2023-02-03T10:18:01;99387.56;;;1.89;100.00
38939;BME280;24211;49.980;19.776;2023-02-03T10:20:40;99377.34;;;1.86;100.00
38939;BME280;24211;49.980;19.776;2023-02-03T10:23:18;99366.13;;;1.92;100.00
38939;BME280;24211;49.980;19.776;2023-02-03T10:25:54;99360.53;;;1.95;100.00
38939;BME280;24211;49.980;19.776;2023-02-03T10:28:56;99351.00;;;1.94;100.00
38939;BME280;24211;49.980;19.776;2023-02-03T10:31:25;99348.81;;;1.97;100.00
38939;BME280;24211;49.980;19.776;2023-02-03T10:34:20;99333.84;;;1.98;100.00
38939;BME280;24211;49.980;19.776;2023-02-03T10:39:51;99313.06;;;2.03;100.00
38939;BME280;24211;49.980;19.776;2023-02-03T10:42:21;99289.00;;;2.06;100.00
38939;BME280;24211;49.980;19.776;2023-02-03T10:44:55;99281.41;;;2.11;100.00
38939;BME280;24211;49.980;19.776;2023-02-03T10:47:27;99276.16;;;2.11;100.00
38939;BME280;24211;49.980;19.776;2023-02-03T10:49:57;99266.75;;;2.09;100.00
38939;BME280;24211;49.980;19.776;2023-02-03T10:52:35;99260.34;;;2.11;100.00
38939;BME280;24211;49.980;19.776;2023-02-03T10:55:28;99244.50;;;2.11;100.00
38939;BME280;24211;49.980;19.776;2023-02-03T10:57:57;99237.59;;;2.10;100.00
38939;BME280;24211;49.980;19.776;2023-02-03T11:00:33;99230.31;;;2.12;100.00
38939;BME280;24211;49.980;19.776;2023-02-03T11:03:22;99222.06;;;2.15;100.00
38939;BME280;24211;49.980;19.776;2023-02-03T11:06:16;99219.63;;;2.14;100.00
38939;BME280;24211;49.980;19.776;2023-02-03T11:08:47;99207.72;;;2.18;100.00
38939;BME280;24211;49.980;19.776;2023-02-03T11:11:25;99194.34;;;2.19;100.00
38939;BME280;24211;49.980;19.776;2023-02-03T11:14:16;99182.19;;;2.18;100.00
38939;BME280;24211;49.980;19.776;2023-02-03T11:16:43;99182.19;;;2.18;100.00
38939;BME280;24211;49.980;19.776;2023-02-03T11:19:19;99169.00;;;2.18;100.00
38939;BME280;24211;49.980;19.776;2023-02-03T11:21:52;99168.00;;;2.19;100.00
38939;BME280;24211;49.980;19.776;2023-02-03T11:24:30;99150.19;;;2.21;100.00
38939;BME280;24211;49.980;19.776;2023-02-03T11:27:02;99144.47;;;2.18;100.00
38939;BME280;24211;49.980;19.776;2023-02-03T11:29:36;99137.72;;;2.15;100.00
38939;BME280;24211;49.980;19.776;2023-02-03T11:32:18;99127.81;;;2.17;100.00
38939;BME280;24211;49.980;19.776;2023-02-03T11:35:03;99117.28;;;2.17;100.00
38939;BME280;24211;49.980;19.776;2023-02-03T11:37:48;99096.53;;;2.14;100.00
38939;BME280;24211;49.980;19.776;2023-02-03T11:47:53;99073.00;;;2.13;100.00
38939;BME280;24211;49.980;19.776;2023-02-03T11:50:37;99069.47;;;2.20;100.00
38939;BME280;24211;49.980;19.776;2023-02-03T12:08:29;98985.94;;;2.21;100.00
38939;BME280;24211;49.980;19.776;2023-02-03T12:17:16;98944.94;;;2.18;100.00
38939;BME280;24211;49.980;19.776;2023-02-03T12:28:48;98910.94;;;2.23;100.00
38939;BME280;24211;49.980;19.776;2023-02-03T12:35:10;98896.75;;;2.24;100.00
38939;BME280;24211;49.980;19.776;2023-02-03T12:37:58;98886.56;;;2.21;100.00
38939;BME280;24211;49.980;19.776;2023-02-03T12:40:52;98883.28;;;2.19;100.00
38939;BME280;24211;49.980;19.776;2023-02-03T12:46:22;98866.84;;;2.17;100.00
38939;BME280;24211;49.980;19.776;2023-02-03T12:49:09;98857.31;;;2.16;100.00
38939;BME280;24211;49.980;19.776;2023-02-03T12:51:53;98848.75;;;2.14;100.00
38939;BME280;24211;49.980;19.776;2023-02-03T12:55:01;98833.75;;;2.15;100.00
38939;BME280;24211;49.980;19.776;2023-02-03T13:00:48;98822.59;;;2.13;100.00
38939;BME280;24211;49.980;19.776;2023-02-03T13:06:31;98808.94;;;2.09;100.00
38939;BME280;24211;49.980;19.776;2023-02-03T13:12:28;98788.50;;;2.11;100.00
38939;BME280;24211;49.980;19.776;2023-02-03T13:15:36;98782.59;;;2.09;100.00
38939;BME280;24211;49.980;19.776;2023-02-03T13:18:36;98783.25;;;2.11;100.00
38939;BME280;24211;49.980;19.776;2023-02-03T13:21:04;98771.69;;;2.12;100.00
38939;BME280;24211;49.980;19.776;2023-02-03T13:23:32;98763.78;;;2.12;100.00
38939;BME280;24211;49.980;19.776;2023-02-03T13:43:18;98698.41;;;2.22;100.00
38939;BME280;24211;49.980;19.776;2023-02-03T13:46:07;98702.03;;;2.21;100.00
38939;BME280;24211;49.980;19.776;2023-02-03T13:48:37;98694.31;;;2.20;100.00
38939;BME280;24211;49.980;19.776;2023-02-03T13:51:29;98683.78;;;2.20;100.00
38939;BME280;24211;49.980;19.776;2023-02-03T13:54:22;98674.78;;;2.14;100.00
38939;BME280;24211;49.980;19.776;2023-02-03T13:57:05;98670.69;;;2.12;100.00
38939;BME280;24211;49.980;19.776;2023-02-03T13:59:46;98670.53;;;2.13;100.00
38939;BME280;24211;49.980;19.776;2023-02-03T14:04:54;98650.06;;;2.15;100.00
38939;BME280;24211;49.980;19.776;2023-02-03T14:15:29;98622.16;;;2.21;100.00
38939;BME280;24211;49.980;19.776;2023-02-03T14:18:33;98618.31;;;2.23;100.00
38939;BME280;24211;49.980;19.776;2023-02-03T14:21:23;98611.28;;;2.30;100.00
38939;BME280;24211;49.980;19.776;2023-02-03T14:23:58;98597.34;;;2.36;100.00
38939;BME280;24211;49.980;19.776;2023-02-03T14:26:37;98596.28;;;2.31;100.00
38939;BME280;24211;49.980;19.776;2023-02-03T14:29:06;98582.47;;;2.29;100.00
38939;BME280;24211;49.980;19.776;2023-02-03T14:32:01;98575.50;;;2.21;100.00
38939;BME280;24211;49.980;19.776;2023-02-03T14:34:33;98571.88;;;2.22;100.00
38939;BME280;24211;49.980;19.776;2023-02-03T14:37:36;98565.34;;;2.18;100.00
38939;BME280;24211;49.980;19.776;2023-02-03T14:47:14;98541.00;;;2.16;100.00
38939;BME280;24211;49.980;19.776;2023-02-03T14:50:05;98541.38;;;2.13;100.00
38939;BME280;24211;49.980;19.776;2023-02-03T14:58:41;98521.91;;;2.14;100.00
38939;BME280;24211;49.980;19.776;2023-02-03T15:06:45;98515.28;;;2.18;100.00
38939;BME280;24211;49.980;19.776;2023-02-03T15:09:43;98512.63;;;2.18;100.00
38939;BME280;24211;49.980;19.776;2023-02-03T15:12:25;98510.63;;;2.20;100.00
38939;BME280;24211;49.980;19.776;2023-02-03T15:15:39;98512.22;;;2.21;100.00
38939;BME280;24211;49.980;19.776;2023-02-03T15:18:19;98502.47;;;2.15;100.00
38939;BME280;24211;49.980;19.776;2023-02-03T15:20:51;98509.38;;;2.16;100.00
38939;BME280;24211;49.980;19.776;2023-02-03T15:23:29;98514.25;;;2.19;100.00
38939;BME280;24211;49.980;19.776;2023-02-03T15:26:11;98511.00;;;2.17;100.00
38939;BME280;24211;49.980;19.776;2023-02-03T15:28:39;98510.63;;;2.20;100.00
38939;BME280;24211;49.980;19.776;2023-02-03T15:31:21;98516.50;;;2.22;100.00
38939;BME280;24211;49.980;19.776;2023-02-03T15:33:55;98522.78;;;2.21;100.00
38939;BME280;24211;49.980;19.776;2023-02-03T15:36:42;98518.53;;;2.20;100.00
38939;BME280;24211;49.980;19.776;2023-02-03T15:41:52;98523.19;;;2.18;100.00
38939;BME280;24211;49.980;19.776;2023-02-03T15:44:39;98516.28;;;2.17;100.00
38939;BME280;24211;49.980;19.776;2023-02-03T15:47:27;98533.72;;;2.18;100.00
38939;BME280;24211;49.980;19.776;2023-02-03T15:50:28;98536.53;;;2.17;100.00
38939;BME280;24211;49.980;19.776;2023-02-03T15:53:05;98535.34;;;2.19;100.00
38939;BME280;24211;49.980;19.776;2023-02-03T15:55:46;98537.34;;;2.17;100.00
38939;BME280;24211;49.980;19.776;2023-02-03T15:58:27;98525.38;;;2.15;100.00